TAP6767 LPFR-LPMA
Flight info
| Callsign | TAP6767 |
|---|---|
| Flight time | N/A |
| Altitude | 33000 |
| Route | IXOLI2V IXOLI DCT NARTA DCT GALPA DCT RAKUN RAKUN1P |
| Aircraft | A321/M-SDE3FGHIRWY/LB1 |
Departure
| Time | N/A |
|---|---|
| Airport | Faro - Gago Coutinho International Airport (LPFR) |
Arrival
| Time | 2026-05-05 19:52 |
|---|---|
| Airport | Cristiano Ronaldo International Airport (LPMA) |
| Time | Latitude | Longitude | Altitude | Speed | Heading |
|---|---|---|---|---|---|
| 2026-05-05 19:43 | 32.99427 | -16.43619 | 8633 ft | 292 kts | 225° |
| 2026-05-05 19:43 | 32.97971 | -16.45295 | 8229 ft | 289 kts | 225° |
| 2026-05-05 19:43 | 32.96521 | -16.46962 | 7782 ft | 288 kts | 225° |
| 2026-05-05 19:43 | 32.95076 | -16.48623 | 7338 ft | 288 kts | 225° |
| 2026-05-05 19:44 | 32.93647 | -16.50264 | 6933 ft | 283 kts | 225° |
| 2026-05-05 19:44 | 32.92252 | -16.51854 | 6695 ft | 268 kts | 224° |
| 2026-05-05 19:44 | 32.90933 | -16.53289 | 6596 ft | 253 kts | 222° |
| 2026-05-05 19:44 | 32.89646 | -16.54652 | 6250 ft | 244 kts | 222° |
| 2026-05-05 19:45 | 32.88379 | -16.55988 | 5664 ft | 244 kts | 221° |
| 2026-05-05 19:45 | 32.87106 | -16.57332 | 5205 ft | 242 kts | 221° |
| 2026-05-05 19:45 | 32.85847 | -16.58667 | 5042 ft | 242 kts | 221° |
| 2026-05-05 19:45 | 32.84553 | -16.59844 | 4818 ft | 232 kts | 213° |
| 2026-05-05 19:46 | 32.83243 | -16.60926 | 4458 ft | 226 kts | 213° |
| 2026-05-05 19:46 | 32.81971 | -16.61980 | 4173 ft | 219 kts | 212° |
| 2026-05-05 19:46 | 32.80734 | -16.63005 | 3857 ft | 214 kts | 212° |
| 2026-05-05 19:46 | 32.79529 | -16.64003 | 3559 ft | 209 kts | 212° |
| 2026-05-05 19:47 | 32.78342 | -16.64984 | 3278 ft | 206 kts | 212° |
| 2026-05-05 19:47 | 32.77174 | -16.65947 | 2984 ft | 203 kts | 212° |
| 2026-05-05 19:47 | 32.76020 | -16.66901 | 2659 ft | 201 kts | 212° |
| 2026-05-05 19:47 | 32.74878 | -16.67848 | 2271 ft | 198 kts | 212° |
| 2026-05-05 19:48 | 32.73746 | -16.68785 | 1906 ft | 199 kts | 212° |
| 2026-05-05 19:48 | 32.72621 | -16.69716 | 1541 ft | 195 kts | 213° |
| 2026-05-05 19:48 | 32.71519 | -16.70626 | 1188 ft | 192 kts | 213° |
| 2026-05-05 19:48 | 32.70429 | -16.71525 | 847 ft | 190 kts | 216° |
| 2026-05-05 19:49 | 32.69360 | -16.72407 | 515 ft | 184 kts | 217° |
| 2026-05-05 19:49 | 32.68403 | -16.73289 | 494 ft | 168 kts | 225° |
| 2026-05-05 19:49 | 32.67618 | -16.74310 | 650 ft | 166 kts | 232° |
| 2026-05-05 19:49 | 32.66930 | -16.75376 | 791 ft | 165 kts | 238° |
| 2026-05-05 19:50 | 32.66263 | -16.76497 | 951 ft | 167 kts | 239° |
| 2026-05-05 19:50 | 32.65832 | -16.77761 | 1048 ft | 166 kts | 265° |
| 2026-05-05 19:50 | 32.65917 | -16.79077 | 942 ft | 155 kts | 295° |
| 2026-05-05 19:50 | 32.66552 | -16.80018 | 984 ft | 144 kts | 335° |
| 2026-05-05 19:51 | 32.67508 | -16.80185 | 928 ft | 141 kts | 14° |
| 2026-05-05 19:51 | 32.68243 | -16.79463 | 564 ft | 141 kts | 57° |
| 2026-05-05 19:51 | 32.68818 | -16.78527 | 224 ft | 137 kts | 37° |
| 2026-05-05 19:51 | 32.69495 | -16.77799 | 169 ft | 120 kts | 44° |
| 2026-05-05 19:52 | 32.69878 | -16.77351 | 178 ft | 33 kts | 47° |
| 2026-05-05 19:52 | 32.69942 | -16.77268 | 180 ft | 16 kts | 49° |
| 2026-05-05 19:52 | 32.69940 | -16.77184 | 178 ft | 11 kts | 155° |
| 2026-05-05 19:52 | 32.69843 | -16.77178 | 175 ft | 5 kts | 181° |
| 2026-05-05 19:53 | 32.69811 | -16.77209 | 173 ft | 8 kts | 225° |
| 2026-05-05 19:53 | 32.69772 | -16.77260 | 171 ft | 9 kts | 227° |
| 2026-05-05 19:53 | 32.69719 | -16.77326 | 167 ft | 12 kts | 226° |
| 2026-05-05 19:53 | 32.69664 | -16.77393 | 169 ft | 8 kts | 225° |
| 2026-05-05 19:54 | 32.69642 | -16.77420 | 172 ft | 6 kts | 225° |
| 2026-05-05 19:54 | 32.69573 | -16.77504 | 174 ft | 23 kts | 225° |
| 2026-05-05 19:54 | 32.69462 | -16.77638 | 171 ft | 23 kts | 222° |